Time,TemperatureF,DewpointF,PressureIn,WindDirection,WindDirectionDegrees,WindSpeedMPH,WindSpeedGustMPH,Humidity,HourlyPrecipIn,Conditions,Clouds,dailyrainin,SolarRadiationWatts/m^2,SoftwareType,DateUTC
2013-03-21 00:01:00,48.0,46.0,-100.00,SW,233,1.0,2.0,94,0.00,,,0.01,0.000000,,2013-03-21 07:01:00,
2013-03-21 00:32:00,47.0,46.0,-100.00,SW,234,1.0,5.0,95,0.00,,,0.01,0.000000,,2013-03-21 07:32:00,
2013-03-21 00:42:00,47.0,46.0,-100.00,SW,234,1.0,5.0,95,0.00,,,0.01,0.000000,,2013-03-21 07:42:00,
2013-03-21 00:52:00,47.0,46.0,-100.00,SW,234,1.0,5.0,95,0.00,,,0.01,0.000000,,2013-03-21 07:52:00,
2013-03-21 01:01:00,47.0,46.0,-100.00,SW,234,1.0,5.0,95,0.00,,,0.01,0.000000,,2013-03-21 08:01:00,
2013-03-21 01:33:00,46.0,44.0,-100.00,SW,230,1.0,4.0,94,0.00,,,0.01,0.000000,,2013-03-21 08:33:00,
2013-03-21 01:42:00,46.0,44.0,-100.00,SW,230,1.0,4.0,94,0.00,,,0.01,0.000000,,2013-03-21 08:42:00,
2013-03-21 01:52:00,46.0,44.0,-100.00,SW,230,1.0,4.0,94,0.00,,,0.01,0.000000,,2013-03-21 08:52:00,
2013-03-21 02:01:00,46.0,44.0,-100.00,SW,230,1.0,4.0,94,0.00,,,0.01,0.000000,,2013-03-21 09:01:00,
2013-03-21 02:33:00,47.0,46.0,-100.00,SW,220,1.0,3.0,96,0.00,,,0.01,0.000000,,2013-03-21 09:33:00,
2013-03-21 02:43:00,47.0,46.0,-100.00,SW,220,1.0,3.0,96,0.00,,,0.01,0.000000,,2013-03-21 09:43:00,
2013-03-21 02:53:00,47.0,46.0,-100.00,SW,220,1.0,3.0,96,0.00,,,0.01,0.000000,,2013-03-21 09:53:00,
2013-03-21 03:02:00,47.0,46.0,-100.00,SW,220,1.0,3.0,96,0.00,,,0.01,0.000000,,2013-03-21 10:02:00,
2013-03-21 03:34:00,48.0,46.0,-100.00,SSW,194,1.0,4.0,92,0.00,,,0.01,0.000000,,2013-03-21 10:34:00,
2013-03-21 03:43:00,48.0,46.0,-100.00,SSW,194,1.0,4.0,92,0.00,,,0.01,0.000000,,2013-03-21 10:43:00,
2013-03-21 03:53:00,48.0,46.0,-100.00,SSW,194,1.0,4.0,92,0.00,,,0.01,0.000000,,2013-03-21 10:53:00,
2013-03-21 04:02:00,48.0,46.0,-100.00,SSW,194,1.0,4.0,92,0.00,,,0.01,0.000000,,2013-03-21 11:02:00,
2013-03-21 04:33:00,49.0,46.0,-100.00,South,177,0.0,5.0,89,0.00,,,0.01,0.000000,,2013-03-21 11:33:00,
2013-03-21 04:43:00,49.0,46.0,-100.00,South,177,0.0,5.0,89,0.00,,,0.01,0.000000,,2013-03-21 11:43:00,
2013-03-21 04:53:00,49.0,46.0,-100.00,South,177,0.0,5.0,89,0.00,,,0.01,0.000000,,2013-03-21 11:53:00,
2013-03-21 05:01:00,49.0,46.0,-100.00,South,177,0.0,5.0,89,0.00,,,0.01,0.000000,,2013-03-21 12:01:00,
2013-03-21 05:33:00,49.0,46.0,-100.00,East,101,0.0,2.0,90,0.00,,,0.01,0.000000,,2013-03-21 12:33:00,
2013-03-21 05:43:00,49.0,46.0,-100.00,East,101,0.0,2.0,90,0.00,,,0.01,0.000000,,2013-03-21 12:43:00,
2013-03-21 05:52:00,49.0,46.0,-100.00,East,101,0.0,2.0,90,0.00,,,0.01,0.000000,,2013-03-21 12:52:00,
2013-03-21 06:02:00,49.0,46.0,-100.00,East,101,0.0,2.0,90,0.00,,,0.01,0.000000,,2013-03-21 13:02:00,
2013-03-21 06:32:00,48.0,46.0,-100.00,SSE,164,0.0,0.0,92,0.00,,,0.01,0.000000,,2013-03-21 13:32:00,
2013-03-21 06:42:00,48.0,46.0,-100.00,SSE,164,0.0,0.0,92,0.00,,,0.01,0.000000,,2013-03-21 13:42:00,
2013-03-21 06:52:00,48.0,46.0,-100.00,SSE,164,0.0,0.0,92,0.00,,,0.01,0.000000,,2013-03-21 13:52:00,
2013-03-21 07:02:00,48.0,46.0,-100.00,SSE,164,0.0,0.0,92,0.00,,,0.01,0.000000,,2013-03-21 14:02:00,
2013-03-21 07:32:00,46.0,44.0,-100.00,WNW,284,1.0,3.0,93,0.00,,,0.01,0.000000,,2013-03-21 14:32:00,
2013-03-21 07:42:00,46.0,44.0,-100.00,WNW,284,1.0,3.0,93,0.00,,,0.01,0.000000,,2013-03-21 14:42:00,
2013-03-21 07:52:00,46.0,44.0,-100.00,WNW,284,1.0,3.0,93,0.00,,,0.01,0.000000,,2013-03-21 14:52:00,
2013-03-21 08:02:00,46.0,44.0,-100.00,WNW,284,1.0,3.0,93,0.00,,,0.01,0.000000,,2013-03-21 15:02:00,
2013-03-21 08:33:00,47.0,44.0,-100.00,SSW,207,0.0,2.0,90,0.00,,,0.01,36.000000,,2013-03-21 15:33:00,
2013-03-21 08:42:00,47.0,44.0,-100.00,SSW,207,0.0,2.0,90,0.00,,,0.01,36.000000,,2013-03-21 15:42:00,
2013-03-21 08:53:00,47.0,44.0,-100.00,SSW,207,0.0,2.0,90,0.00,,,0.01,36.000000,,2013-03-21 15:53:00,
2013-03-21 09:03:00,47.0,44.0,-100.00,SSW,207,0.0,2.0,90,0.00,,,0.01,36.000000,,2013-03-21 16:03:00,
2013-03-21 09:33:00,54.0,45.0,-100.00,North,356,2.0,4.0,72,0.00,,,0.01,267.000000,,2013-03-21 16:33:00,
2013-03-21 09:42:00,54.0,45.0,-100.00,North,356,2.0,4.0,72,0.00,,,0.01,267.000000,,2013-03-21 16:42:00,
2013-03-21 09:53:00,54.0,45.0,-100.00,North,356,2.0,4.0,72,0.00,,,0.01,267.000000,,2013-03-21 16:53:00,
2013-03-21 10:02:00,54.0,45.0,-100.00,North,356,2.0,4.0,72,0.00,,,0.01,267.000000,,2013-03-21 17:02:00,
2013-03-21 10:33:00,59.0,47.0,-100.00,SSE,163,1.0,5.0,64,0.00,,,0.01,470.000000,,2013-03-21 17:33:00,
2013-03-21 10:43:00,59.0,47.0,-100.00,SSE,163,1.0,5.0,64,0.00,,,0.01,470.000000,,2013-03-21 17:43:00,
2013-03-21 10:53:00,59.0,47.0,-100.00,SSE,163,1.0,5.0,64,0.00,,,0.01,470.000000,,2013-03-21 17:53:00,
2013-03-21 11:02:00,59.0,47.0,-100.00,SSE,163,1.0,5.0,64,0.00,,,0.01,470.000000,,2013-03-21 18:02:00,
2013-03-21 11:23:00,62.0,40.0,-100.00,East,92,4.0,8.0,45,0.00,,,0.01,658.000000,,2013-03-21 18:23:00,
2013-03-21 11:32:00,62.0,40.0,-100.00,East,92,4.0,8.0,45,0.00,,,0.01,658.000000,,2013-03-21 18:32:00,
2013-03-21 11:43:00,62.0,40.0,-100.00,East,92,4.0,8.0,45,0.00,,,0.01,658.000000,,2013-03-21 18:43:00,
2013-03-21 11:52:00,62.0,40.0,-100.00,East,92,4.0,8.0,45,0.00,,,0.01,658.000000,,2013-03-21 18:52:00,
2013-03-21 12:02:00,62.0,40.0,-100.00,East,92,4.0,8.0,45,0.00,,,0.01,658.000000,,2013-03-21 19:02:00,
2013-03-21 12:23:00,65.0,25.0,-100.00,East,98,7.0,13.0,22,0.00,,,0.01,794.000000,,2013-03-21 19:23:00,
2013-03-21 12:32:00,65.0,25.0,-100.00,East,98,7.0,13.0,22,0.00,,,0.01,794.000000,,2013-03-21 19:32:00,
2013-03-21 13:33:00,70.0,32.0,-100.00,East,82,4.0,13.0,24,0.00,,,0.01,799.000000,,2013-03-21 20:33:00,
2013-03-21 14:23:00,72.0,32.0,-100.00,ENE,69,6.0,13.0,23,-99.99,,,0.01,880.000000,,2013-03-21 21:23:00,
2013-03-21 14:33:00,72.0,32.0,-100.00,ENE,69,6.0,13.0,23,-99.99,,,0.01,880.000000,,2013-03-21 21:33:00,
2013-03-21 15:33:00,73.0,27.0,-100.00,East,101,6.0,13.0,18,-99.99,,,0.01,830.000000,,2013-03-21 22:33:00,
2013-03-21 16:22:00,72.0,27.0,-100.00,East,81,8.0,15.0,19,-99.99,,,0.01,715.000000,,2013-03-21 23:22:00,
2013-03-21 16:33:00,72.0,27.0,-100.00,East,81,8.0,15.0,19,-99.99,,,0.01,715.000000,,2013-03-21 23:33:00,
2013-03-21 17:22:00,72.0,22.0,-100.00,ENE,74,5.0,14.0,15,-99.99,,,0.00,547.000000,,2013-03-22 00:22:00,
2013-03-21 17:32:00,72.0,22.0,-100.00,ENE,74,5.0,14.0,15,-99.99,,,0.00,547.000000,,2013-03-22 00:32:00,
2013-03-21 18:32:00,67.0,23.0,-100.00,ENE,60,3.0,14.0,19,-99.99,,,0.00,284.000000,,2013-03-22 01:32:00,
2013-03-21 19:32:00,62.0,30.0,-100.00,ENE,77,5.0,12.0,30,0.00,,,0.00,31.000000,,2013-03-22 02:32:00,
2013-03-21 20:33:00,56.0,30.0,-100.00,WSW,240,2.0,12.0,37,0.00,,,0.00,3.000000,,2013-03-22 03:33:00,
2013-03-21 20:43:00,56.0,30.0,-100.00,WSW,240,2.0,12.0,37,0.00,,,0.00,3.000000,,2013-03-22 03:43:00,
2013-03-21 20:53:00,56.0,30.0,-100.00,WSW,240,2.0,12.0,37,0.00,,,0.00,3.000000,,2013-03-22 03:53:00,
2013-03-21 21:03:00,56.0,30.0,-100.00,WSW,240,2.0,12.0,37,0.00,,,0.00,3.000000,,2013-03-22 04:03:00,
2013-03-21 21:32:00,50.0,34.0,-100.00,South,175,0.0,5.0,53,0.00,,,0.00,0.000000,,2013-03-22 04:32:00,
2013-03-21 21:43:00,50.0,34.0,-100.00,South,175,0.0,5.0,53,0.00,,,0.00,0.000000,,2013-03-22 04:43:00,
2013-03-21 21:52:00,50.0,34.0,-100.00,South,175,0.0,5.0,53,0.00,,,0.00,0.000000,,2013-03-22 04:52:00,
2013-03-21 22:02:00,50.0,34.0,-100.00,South,175,0.0,5.0,53,0.00,,,0.00,0.000000,,2013-03-22 05:02:00,
2013-03-21 22:32:00,47.0,35.0,-100.00,SSW,212,0.0,0.0,64,0.00,,,0.00,0.000000,,2013-03-22 05:32:00,
2013-03-21 22:42:00,47.0,35.0,-100.00,SSW,212,0.0,0.0,64,0.00,,,0.00,0.000000,,2013-03-22 05:42:00,
2013-03-21 22:52:00,47.0,35.0,-100.00,SSW,212,0.0,0.0,64,0.00,,,0.00,0.000000,,2013-03-22 05:52:00,
2013-03-21 23:02:00,47.0,35.0,-100.00,SSW,212,0.0,0.0,64,0.00,,,0.00,0.000000,,2013-03-22 06:02:00,
2013-03-21 23:22:00,45.0,36.0,-100.00,WSW,245,0.0,0.0,70,0.00,,,0.00,0.000000,,2013-03-22 06:22:00,
2013-03-21 23:32:00,45.0,36.0,-100.00,WSW,245,0.0,0.0,70,0.00,,,0.00,0.000000,,2013-03-22 06:32:00,
2013-03-21 23:43:00,45.0,36.0,-100.00,WSW,245,0.0,0.0,70,0.00,,,0.00,0.000000,,2013-03-22 06:43:00,
2013-03-21 23:52:00,45.0,36.0,-100.00,WSW,245,0.0,0.0,70,0.00,,,0.00,0.000000,,2013-03-22 06:52:00,